Time;durP1;ratioP1;P1;durP2;ratioP2;P2;SDS_P1;SDS_P2;PMS_P1;PMS_P2;Temp;Humidity;BMP_temperature;BMP_pressure;BME280_temperature;BME280_humidity;BME280_pressure;Samples;Min_cycle;Max_cycle;Signal;HPM_P1;HPM_P2
2024/02/03 00:00:48;;;;;;;148.07;62.78;;;103.10;2227.20;;;;;;4840183;29;20492;-77
2024/02/03 00:03:14;;;;;;;33.92;15.38;;;103.00;2227.20;;;;;;4841585;29;20034;-77
2024/02/03 00:05:40;;;;;;;214.95;86.95;;;103.00;2227.20;;;;;;4824642;29;20042;-77
2024/02/03 00:08:06;;;;;;;20.63;11.07;;;103.00;2227.20;;;;;;4841528;29;20608;-78
2024/02/03 00:10:33;;;;;;;28.27;12.75;;;103.00;2227.20;;;;;;4841609;29;20033;-77
2024/02/03 00:12:59;;;;;;;56.25;25.90;;;103.20;2227.20;;;;;;4824948;29;20036;-77
2024/02/03 00:15:27;;;;;;;33.85;13.68;;;103.30;2227.20;;;;;;4841618;29;20034;-76
2024/02/03 00:17:53;;;;;;;23.88;12.30;;;103.20;2227.20;;;;;;4844423;29;20465;-77
2024/02/03 00:20:19;;;;;;;71.25;37.53;;;103.20;2227.20;;;;;;4859331;29;20053;-76
2024/02/03 00:22:51;;;;;;;83.85;36.80;;;103.20;2227.20;;;;;;4859428;29;20029;-77
2024/02/03 00:25:20;;;;;;;49.08;20.92;;;103.10;2227.20;;;;;;4859489;29;20681;-78
2024/02/03 00:27:47;;;;;;;28.73;12.88;;;103.10;2227.20;;;;;;4836306;29;20030;-78
2024/02/03 00:30:13;;;;;;;20.95;12.32;;;103.10;2227.20;;;;;;4841194;29;20026;-78
2024/02/03 00:32:39;;;;;;;27.10;15.07;;;103.00;2227.20;;;;;;4841282;29;20113;-78
2024/02/03 00:35:06;;;;;;;26.70;14.02;;;103.00;2227.20;;;;;;4812881;29;20034;-78
2024/02/03 00:37:31;;;;;;;18.42;9.55;;;103.00;2227.20;;;;;;4859398;29;20105;-78
2024/02/03 00:39:57;;;;;;;15.48;8.55;;;102.90;2227.20;;;;;;4859205;29;20108;-78
2024/02/03 00:42:24;;;;;;;12.30;6.85;;;102.90;2227.20;;;;;;4859145;29;20071;-77
2024/02/03 00:44:49;;;;;;;46.72;24.20;;;103.00;2227.20;;;;;;4839970;29;20029;-76
2024/02/03 00:47:15;;;;;;;86.05;41.95;;;103.00;2227.20;;;;;;4840889;29;20052;-78
2024/02/03 00:49:43;;;;;;;83.00;42.58;;;103.00;2227.20;;;;;;4839272;29;20037;-77
2024/02/03 00:52:09;;;;;;;135.80;61.80;;;103.10;2227.20;;;;;;4840431;29;20033;-77
2024/02/03 00:54:34;;;;;;;50.58;28.50;;;103.10;2227.20;;;;;;4854246;29;20141;-77
2024/02/03 00:57:00;;;;;;;36.58;19.38;;;103.20;2227.20;;;;;;4849430;29;20022;-77
2024/02/03 00:59:26;;;;;;;82.45;31.13;;;103.20;2227.20;;;;;;4840054;29;20102;-75
2024/02/03 01:01:51;;;;;;;65.15;34.47;;;103.30;2227.20;;;;;;4824216;29;20082;-77
2024/02/03 01:04:18;;;;;;;55.67;28.90;;;128.00;2252.80;;;;;;4823839;29;20040;-77
2024/02/03 01:06:43;;;;;;;24.08;13.15;;;128.10;2252.80;;;;;;4840575;29;20041;-76
2024/02/03 01:09:09;;;;;;;56.40;30.83;;;128.20;2252.80;;;;;;4823360;29;20042;-78
2024/02/03 01:11:35;;;;;;;40.58;22.33;;;128.10;2252.80;;;;;;4840491;29;20026;-80
2024/02/03 01:14:01;;;;;;;82.85;41.60;;;128.20;2252.80;;;;;;4839842;29;20493;-77
2024/02/03 01:16:27;;;;;;;53.83;27.23;;;128.00;2252.80;;;;;;4849973;29;20053;-77
2024/02/03 01:18:53;;;;;;;120.85;58.15;;;128.00;2252.80;;;;;;4841477;29;20053;-78
2024/02/03 01:21:21;;;;;;;30.10;16.55;;;103.30;2227.20;;;;;;4839912;29;20038;-79
2024/02/03 01:23:47;;;;;;;19.17;10.93;;;128.10;2252.80;;;;;;4839533;29;20129;-79
2024/02/03 01:26:13;;;;;;;26.52;14.52;;;128.10;2252.80;;;;;;4838897;29;20057;-78
2024/02/03 01:28:39;;;;;;;41.78;21.35;;;128.30;2252.80;;;;;;4839763;29;20029;-77
2024/02/03 01:31:05;;;;;;;33.10;21.15;;;128.30;2252.80;;;;;;4840174;29;20131;-78
2024/02/03 01:33:31;;;;;;;31.52;17.45;;;128.70;2252.80;;;;;;4839729;29;20037;-79
2024/02/03 01:35:57;;;;;;;27.38;17.35;;;128.40;2252.80;;;;;;4839912;29;20040;-77
2024/02/03 01:38:23;;;;;;;34.63;21.73;;;128.30;2252.80;;;;;;4822354;29;20125;-77
2024/02/03 01:40:49;;;;;;;36.78;24.23;;;128.60;2252.80;;;;;;4833557;29;20125;-78
2024/02/03 01:43:14;;;;;;;31.23;20.30;;;128.30;2252.80;;;;;;4834124;29;20053;-77
2024/02/03 01:45:41;;;;;;;33.60;20.55;;;128.30;2252.80;;;;;;4830695;29;20386;-76
2024/02/03 01:48:08;;;;;;;36.78;23.60;;;128.20;2252.80;;;;;;4823069;29;20038;-76
2024/02/03 01:50:35;;;;;;;40.95;24.08;;;128.20;2252.80;;;;;;4839878;29;20048;-76
2024/02/03 01:53:03;;;;;;;57.05;34.00;;;128.20;2252.80;;;;;;4839074;29;20137;-76
2024/02/03 01:55:30;;;;;;;67.25;52.38;;;128.40;2252.80;;;;;;4838921;29;20462;-76
2024/02/03 01:57:59;;;;;;;56.70;41.85;;;128.40;2252.80;;;;;;4839499;29;20033;-76
2024/02/03 02:00:25;;;;;;;43.55;29.95;;;128.40;2252.80;;;;;;4839732;29;20038;-77
2024/02/03 02:02:51;;;;;;;53.60;26.73;;;128.40;2252.80;;;;;;4839207;29;20026;-76
2024/02/03 02:05:17;;;;;;;41.25;24.90;;;128.30;2252.80;;;;;;4822865;29;20042;-78
2024/02/03 02:07:45;;;;;;;21.55;13.20;;;128.10;2252.80;;;;;;4839245;29;20059;-75
2024/02/03 02:10:15;;;;;;;19.15;13.27;;;128.30;2252.80;;;;;;4839127;29;20104;-76
2024/02/03 02:12:40;;;;;;;20.10;14.70;;;128.20;2252.80;;;;;;4843591;29;20488;-76
2024/02/03 02:15:06;;;;;;;20.17;11.65;;;128.30;2252.80;;;;;;4829894;29;20089;-76
2024/02/03 02:17:33;;;;;;;18.67;11.35;;;128.30;2252.80;;;;;;4839086;29;20113;-76
2024/02/03 02:20:10;;;;;;;20.45;12.02;;;128.30;2252.80;;;;;;4839016;29;20033;-76
2024/02/03 02:22:36;;;;;;;17.25;11.68;;;128.40;2252.80;;;;;;4826736;29;20038;-77
2024/02/03 02:25:03;;;;;;;23.85;15.40;;;128.50;2252.80;;;;;;4838953;29;20113;-77
2024/02/03 02:27:29;;;;;;;20.90;13.57;;;128.60;2252.80;;;;;;4838858;29;20022;-77
2024/02/03 02:29:55;;;;;;;16.05;10.25;;;128.60;2252.80;;;;;;4839153;29;20381;-76
2024/02/03 02:32:21;;;;;;;15.52;10.43;;;128.60;2252.80;;;;;;4838714;29;20030;-76
2024/02/03 02:34:46;;;;;;;16.65;11.18;;;128.70;2252.80;;;;;;4838941;29;20680;-76
2024/02/03 02:37:13;;;;;;;19.20;10.07;;;128.60;2252.80;;;;;;4838796;29;20030;-77
2024/02/03 02:39:39;;;;;;;19.67;10.50;;;128.50;2252.80;;;;;;4822335;29;20152;-76
2024/02/03 02:42:06;;;;;;;20.73;10.90;;;128.70;2252.80;;;;;;4838699;29;20085;-75
2024/02/03 02:44:33;;;;;;;16.05;7.80;;;128.70;2252.80;;;;;;4838723;29;20030;-75
2024/02/03 02:46:59;;;;;;;13.77;8.45;;;128.70;2252.80;;;;;;4838764;29;20034;-75
2024/02/03 02:49:25;;;;;;;17.88;9.68;;;128.70;2252.80;;;;;;4838897;29;20030;-75
2024/02/03 02:51:50;;;;;;;15.55;9.70;;;128.70;2252.80;;;;;;4838224;29;20048;-75
2024/02/03 02:54:16;;;;;;;18.45;10.13;;;128.80;2252.80;;;;;;4838624;29;20054;-76
2024/02/03 02:56:42;;;;;;;18.38;10.02;;;128.80;2252.80;;;;;;4838524;29;20034;-76
2024/02/03 02:59:08;;;;;;;14.20;9.15;;;128.80;2252.80;;;;;;4838489;29;20049;-77
2024/02/03 03:01:33;;;;;;;18.83;11.68;;;128.90;2252.80;;;;;;4838372;29;20057;-76
2024/02/03 03:03:59;;;;;;;16.05;9.32;;;128.90;2252.80;;;;;;4838400;29;20052;-76
2024/02/03 03:06:25;;;;;;;27.00;14.55;;;153.60;2252.80;;;;;;4838470;29;20037;-76
2024/02/03 03:08:51;;;;;;;48.00;25.92;;;128.90;2252.80;;;;;;4821666;29;20427;-77
2024/02/03 03:11:16;;;;;;;33.92;18.23;;;128.70;2252.80;;;;;;4838444;29;20030;-77
2024/02/03 03:13:42;;;;;;;24.33;14.45;;;128.70;2252.80;;;;;;4838433;29;20059;-77
2024/02/03 03:16:08;;;;;;;19.95;12.73;;;128.80;2252.80;;;;;;4838232;29;20366;-77
2024/02/03 03:18:35;;;;;;;23.33;13.52;;;128.80;2252.80;;;;;;4838250;29;20041;-77
2024/02/03 03:21:01;;;;;;;74.18;36.25;;;128.80;2252.80;;;;;;4838132;29;20038;-77
2024/02/03 03:23:27;;;;;;;25.45;14.13;;;128.90;2252.80;;;;;;4821991;29;20492;-78
2024/02/03 03:25:56;;;;;;;38.75;21.60;;;153.60;2252.80;;;;;;4838051;29;20065;-76
2024/02/03 03:28:22;;;;;;;125.85;69.30;;;128.90;2252.80;;;;;;4838110;29;20026;-76
2024/02/03 03:30:48;;;;;;;84.20;50.03;;;128.70;2252.80;;;;;;4838233;29;20034;-76
2024/02/03 03:33:13;;;;;;;79.70;42.20;;;128.80;2252.80;;;;;;4821864;29;20046;-75
2024/02/03 03:35:39;;;;;;;30.30;19.20;;;128.90;2252.80;;;;;;4838097;29;20026;-77
2024/02/03 03:38:06;;;;;;;19.42;11.65;;;128.90;2252.80;;;;;;4838295;29;20033;-76
2024/02/03 03:40:33;;;;;;;133.77;75.97;;;128.90;2252.80;;;;;;4837980;29;20113;-75
2024/02/03 03:42:59;;;;;;;116.82;64.03;;;128.70;2252.80;;;;;;4838393;29;20030;-77
2024/02/03 03:45:25;;;;;;;95.55;51.55;;;128.70;2252.80;;;;;;4838663;29;20026;-77
2024/02/03 03:47:51;;;;;;;79.50;41.78;;;128.80;2252.80;;;;;;4838182;29;20117;-77
2024/02/03 03:50:16;;;;;;;65.70;39.88;;;128.70;2252.80;;;;;;4837778;29;20441;-77
2024/02/03 03:52:42;;;;;;;94.25;46.67;;;128.70;2252.80;;;;;;4849713;29;20028;-77
2024/02/03 03:55:08;;;;;;;66.78;35.40;;;128.80;2252.80;;;;;;4838018;29;20446;-76
2024/02/03 03:57:34;;;;;;;47.05;28.73;;;128.80;2252.80;;;;;;4838318;29;20022;-77
2024/02/03 03:59:59;;;;;;;52.85;32.00;;;128.90;2252.80;;;;;;4837939;29;20261;-77
2024/02/03 04:02:25;;;;;;;43.75;26.48;;;128.90;2252.80;;;;;;4838164;29;20158;-76
2024/02/03 04:04:51;;;;;;;26.23;16.52;;;128.80;2252.80;;;;;;4837722;29;20033;-76
2024/02/03 04:07:17;;;;;;;15.90;10.32;;;128.70;2252.80;;;;;;4837654;29;20034;-76
2024/02/03 04:09:48;;;;;;;22.92;14.30;;;128.90;2252.80;;;;;;4837986;29;20117;-76
2024/02/03 04:12:15;;;;;;;17.67;10.20;;;128.80;2252.80;;;;;;4837943;29;20469;-77
2024/02/03 04:14:42;;;;;;;16.90;7.47;;;128.90;2252.80;;;;;;4837835;29;20045;-78
2024/02/03 04:17:11;;;;;;;12.85;7.60;;;128.90;2252.80;;;;;;4837716;29;20033;-76
2024/02/03 04:19:37;;;;;;;11.10;7.55;;;128.90;2252.80;;;;;;4841255;29;20038;-77
2024/02/03 04:22:03;;;;;;;14.45;8.25;;;128.90;2252.80;;;;;;4840858;29;20413;-76
2024/02/03 04:24:28;;;;;;;12.85;8.13;;;153.60;2252.80;;;;;;4841093;29;20823;-76
2024/02/03 04:26:54;;;;;;;27.55;16.95;;;153.70;2252.80;;;;;;4841235;29;20030;-75
2024/02/03 04:29:20;;;;;;;106.70;53.03;;;153.60;2252.80;;;;;;4852953;29;20447;-75
2024/02/03 04:31:45;;;;;;;59.72;29.60;;;128.60;2252.80;;;;;;4840705;29;20557;-74
2024/02/03 04:34:11;;;;;;;56.00;28.13;;;128.50;2252.80;;;;;;4829434;29;20474;-75
2024/02/03 04:36:37;;;;;;;117.05;65.97;;;128.70;2252.80;;;;;;4835027;29;20473;-77
2024/02/03 04:39:04;;;;;;;198.82;111.00;;;128.70;2252.80;;;;;;4840798;29;20034;-78
2024/02/03 04:41:30;;;;;;;115.00;61.20;;;128.50;2252.80;;;;;;4840755;29;20040;-75
2024/02/03 04:43:55;;;;;;;70.07;41.35;;;128.70;2252.80;;;;;;4841132;29;20022;-76
2024/02/03 04:46:21;;;;;;;66.40;40.65;;;128.80;2252.80;;;;;;4840645;29;20113;-78
2024/02/03 04:48:47;;;;;;;69.07;39.53;;;128.90;2252.80;;;;;;4824473;29;20553;-79
2024/02/03 04:51:14;;;;;;;37.28;21.42;;;128.90;2252.80;;;;;;4840502;29;20114;-75
2024/02/03 04:53:40;;;;;;;22.75;12.20;;;153.60;2252.80;;;;;;4823673;29;20093;-75
2024/02/03 04:56:07;;;;;;;15.90;10.45;;;153.80;2252.80;;;;;;4840482;29;20026;-75
2024/02/03 04:58:33;;;;;;;18.45;10.90;;;153.90;2252.80;;;;;;4840778;29;20026;-76
2024/02/03 05:01:00;;;;;;;25.92;13.98;;;153.90;2252.80;;;;;;4840615;29;20038;-76
2024/02/03 05:03:26;;;;;;;45.88;28.95;;;153.90;2252.80;;;;;;4840843;29;20020;-76
2024/02/03 05:05:52;;;;;;;42.45;24.92;;;154.00;2252.80;;;;;;4840425;29;20105;-75
2024/02/03 05:08:18;;;;;;;42.75;25.15;;;154.00;2252.80;;;;;;4840179;29;20093;-76
2024/02/03 05:10:44;;;;;;;77.70;45.38;;;154.00;2252.80;;;;;;4840422;29;20390;-76
2024/02/03 05:13:09;;;;;;;55.83;27.50;;;153.70;2252.80;;;;;;4840325;29;20026;-74
2024/02/03 05:15:35;;;;;;;58.58;33.80;;;153.60;2252.80;;;;;;4840313;29;20462;-74
2024/02/03 05:18:02;;;;;;;55.00;34.70;;;128.90;2252.80;;;;;;4840197;29;20038;-75
2024/02/03 05:20:27;;;;;;;45.25;29.48;;;153.60;2252.80;;;;;;4840243;29;20429;-75
2024/02/03 05:22:53;;;;;;;59.35;34.08;;;153.70;2252.80;;;;;;4840301;29;20112;-75
2024/02/03 05:25:20;;;;;;;43.50;23.85;;;153.70;2252.80;;;;;;4839803;29;20045;-78
2024/02/03 05:27:46;;;;;;;31.30;19.45;;;153.80;2252.80;;;;;;4840346;29;20022;-76
2024/02/03 05:30:12;;;;;;;30.27;15.13;;;153.80;2252.80;;;;;;4839076;29;20034;-76
2024/02/03 05:32:38;;;;;;;21.85;12.85;;;153.80;2252.80;;;;;;4839996;29;20037;-77
2024/02/03 05:35:04;;;;;;;20.35;11.35;;;153.90;2252.80;;;;;;4840093;29;20026;-77
2024/02/03 05:37:30;;;;;;;18.98;9.07;;;153.90;2252.80;;;;;;4839718;29;20022;-77
2024/02/03 05:39:56;;;;;;;16.02;9.82;;;154.00;2252.80;;;;;;4839792;29;20021;-77
2024/02/03 05:42:22;;;;;;;14.25;7.47;;;154.10;2252.80;;;;;;4840194;29;20419;-78
2024/02/03 05:44:48;;;;;;;13.40;9.25;;;154.10;2252.80;;;;;;4839853;29;20113;-77
2024/02/03 05:47:14;;;;;;;22.95;11.82;;;154.20;2252.80;;;;;;4839990;29;20051;-73
2024/02/03 05:49:41;;;;;;;28.10;16.80;;;154.20;2252.80;;;;;;4844301;29;20021;-75
2024/02/03 05:52:06;;;;;;;31.58;15.70;;;154.30;2252.80;;;;;;4839773;29;20033;-75
2024/02/03 05:54:32;;;;;;;40.58;22.38;;;154.20;2252.80;;;;;;4839377;29;20065;-74
2024/02/03 05:56:58;;;;;;;47.75;22.65;;;154.20;2252.80;;;;;;4840175;29;20048;-75
2024/02/03 05:59:24;;;;;;;33.78;19.48;;;154.20;2252.80;;;;;;4839506;29;20030;-77
2024/02/03 06:01:50;;;;;;;24.70;13.98;;;154.20;2252.80;;;;;;4839559;29;20054;-76
2024/02/03 06:04:16;;;;;;;26.27;14.35;;;154.30;2252.80;;;;;;4839435;29;20034;-79
2024/02/03 06:06:41;;;;;;;29.30;17.30;;;154.10;2252.80;;;;;;4839533;29;20038;-77
2024/02/03 06:09:08;;;;;;;22.27;11.48;;;154.10;2252.80;;;;;;4838966;29;20030;-79
2024/02/03 06:11:33;;;;;;;18.45;11.10;;;154.20;2252.80;;;;;;4839446;29;20038;-79
2024/02/03 06:13:59;;;;;;;111.13;55.83;;;154.20;2252.80;;;;;;4840759;29;20052;-75
2024/02/03 06:16:25;;;;;;;88.22;48.80;;;154.30;2252.80;;;;;;4850064;29;20022;-75
2024/02/03 06:18:51;;;;;;;111.55;64.38;;;154.40;2252.80;;;;;;4838917;29;20101;-75
2024/02/03 06:21:16;;;;;;;208.13;131.70;;;154.20;2252.80;;;;;;4844794;29;20676;-77
2024/02/03 06:23:42;;;;;;;263.88;155.80;;;153.90;2252.80;;;;;;4843180;29;20038;-76
2024/02/03 06:26:10;;;;;;;236.57;147.70;;;154.10;2252.80;;;;;;4838932;29;20091;-77
2024/02/03 06:28:36;;;;;;;291.75;177.00;;;154.20;2252.80;;;;;;4838895;29;20053;-76
2024/02/03 06:31:02;;;;;;;273.55;177.00;;;154.20;2252.80;;;;;;4839085;29;20493;-76
2024/02/03 06:33:27;;;;;;;161.25;103.20;;;154.00;2252.80;;;;;;4838816;29;20026;-77
2024/02/03 06:35:53;;;;;;;137.43;83.90;;;153.60;2252.80;;;;;;4839016;29;20038;-77
2024/02/03 06:38:19;;;;;;;148.85;93.85;;;153.70;2252.80;;;;;;4838594;29;20025;-77
2024/02/03 06:40:45;;;;;;;123.50;77.32;;;153.90;2252.80;;;;;;4821942;29;20159;-76
2024/02/03 06:43:11;;;;;;;125.65;87.78;;;154.10;2252.80;;;;;;4838688;29;20026;-77
2024/02/03 06:45:36;;;;;;;130.98;84.47;;;154.10;2252.80;;;;;;4839009;29;20033;-76
2024/02/03 06:48:02;;;;;;;102.03;62.55;;;154.20;2252.80;;;;;;4838998;29;20041;-77
2024/02/03 06:50:28;;;;;;;166.40;101.45;;;154.20;2252.80;;;;;;4838585;29;20029;-77
2024/02/03 06:52:54;;;;;;;155.38;93.05;;;154.20;2252.80;;;;;;4838270;29;20421;-76
2024/02/03 06:55:20;;;;;;;133.20;87.65;;;154.20;2252.80;;;;;;4838463;29;20061;-76
2024/02/03 06:57:46;;;;;;;148.10;97.07;;;154.30;2252.80;;;;;;4838644;29;20105;-75
2024/02/03 07:00:12;;;;;;;183.85;117.15;;;154.50;2252.80;;;;;;4838617;29;20094;-76
2024/02/03 07:02:38;;;;;;;226.27;152.68;;;179.20;2252.80;;;;;;4838137;29;20473;-75
2024/02/03 07:05:04;;;;;;;185.13;118.78;;;179.20;2252.80;;;;;;4838596;29;20037;-76
2024/02/03 07:07:30;;;;;;;179.60;114.82;;;154.40;2252.80;;;;;;4838312;29;20470;-76
2024/02/03 07:09:58;;;;;;;162.90;107.65;;;154.50;2252.80;;;;;;4838486;29;20046;-75
2024/02/03 07:12:25;;;;;;;186.05;117.28;;;154.40;2252.80;;;;;;4838540;29;20465;-75
2024/02/03 07:14:51;;;;;;;739.30;482.60;;;154.30;2252.80;;;;;;4838263;29;20042;-77
2024/02/03 07:17:18;;;;;;;298.05;169.57;;;154.20;2252.80;;;;;;4822341;29;20053;-77
2024/02/03 07:19:44;;;;;;;183.23;108.35;;;154.20;2252.80;;;;;;4837656;29;20041;-77
2024/02/03 07:22:09;;;;;;;155.30;100.43;;;154.10;2252.80;;;;;;4837974;29;20393;-76
2024/02/03 07:24:39;;;;;;;150.02;87.20;;;154.10;2252.80;;;;;;4821958;29;20494;-77
2024/02/03 07:27:05;;;;;;;95.03;63.28;;;154.00;2252.80;;;;;;4838320;29;20443;-77
2024/02/03 07:29:31;;;;;;;62.72;40.63;;;154.10;2252.80;;;;;;4837751;29;20482;-77
2024/02/03 07:32:03;;;;;;;55.80;32.45;;;154.20;2252.80;;;;;;4838340;29;20037;-76
2024/02/03 07:34:29;;;;;;;55.13;35.65;;;154.20;2252.80;;;;;;4838125;29;20397;-76
2024/02/03 07:36:55;;;;;;;68.72;42.45;;;154.50;2252.80;;;;;;4838062;29;20045;-76
2024/02/03 07:39:21;;;;;;;50.53;34.58;;;179.30;2252.80;;;;;;4838178;29;20030;-82
2024/02/03 07:41:48;;;;;;;55.22;34.50;;;179.20;2252.80;;;;;;4833879;29;20070;-86
2024/02/03 07:44:14;;;;;;;176.25;119.55;;;179.30;2252.80;;;;;;4822780;29;20474;-84
2024/02/03 07:46:40;;;;;;;123.82;80.32;;;179.50;2252.80;;;;;;4839407;29;20474;-87
2024/02/03 07:49:06;;;;;;;120.18;82.15;;;179.40;2252.80;;;;;;4834129;29;20022;-86
2024/02/03 07:51:32;;;;;;;95.47;63.40;;;179.60;2252.80;;;;;;4822227;29;20073;-87
2024/02/03 07:53:58;;;;;;;226.32;138.57;;;179.90;2252.80;;;;;;4825101;29;20042;-87
2024/02/03 07:56:24;;;;;;;305.42;187.10;;;179.60;2252.80;;;;;;4842743;29;20045;-86
2024/02/03 07:58:51;;;;;;;166.40;103.82;;;204.90;2252.80;;;;;;4826506;29;20492;-86
2024/02/03 08:01:20;;;;;;;117.28;76.53;;;205.70;2252.80;;;;;;4826055;29;20439;-86
2024/02/03 08:03:47;;;;;;;107.95;75.63;;;230.50;2252.80;;;;;;4825978;29;20022;-85
2024/02/03 08:06:12;;;;;;;65.20;44.20;;;231.30;2252.80;;;;;;4825927;29;20054;-87
2024/02/03 08:08:38;;;;;;;50.88;36.83;;;256.70;2252.80;;;;;;4817494;29;20539;-87
2024/02/03 08:11:04;;;;;;;76.80;54.08;;;307.90;2304.00;;;;;;4819914;29;20489;-86
2024/02/03 08:13:30;;;;;;;100.63;69.97;;;384.20;2073.60;;;;;;4825267;29;20171;-85
2024/02/03 08:15:55;;;;;;;73.10;56.90;;;435.80;1868.80;;;;;;4836952;29;20485;-84
2024/02/03 08:18:21;;;;;;;39.53;30.02;;;461.70;1766.40;;;;;;4828706;29;20367;-85
2024/02/03 08:20:48;;;;;;;36.03;29.23;;;512.50;1612.80;;;;;;4825895;29;20042;-85
2024/02/03 08:23:14;;;;;;;25.67;22.88;;;538.20;1561.60;;;;;;4825479;29;20118;-86
2024/02/03 08:25:40;;;;;;;27.83;22.55;;;538.30;1510.40;;;;;;4825097;29;20091;-87
2024/02/03 08:28:06;;;;;;;36.50;31.98;;;564.00;1510.40;;;;;;4827927;29;20084;-81
2024/02/03 08:30:31;;;;;;;45.67;40.38;;;588.80;1433.60;;;;;;4840370;29;20377;-80
2024/02/03 08:32:57;;;;;;;34.55;29.67;;;614.40;1408.00;;;;;;4840912;29;20242;-82
2024/02/03 08:35:23;;;;;;;27.73;24.20;;;614.40;1382.40;;;;;;4823815;29;20072;-82
2024/02/03 08:37:49;;;;;;;96.53;83.80;;;615.10;1331.20;;;;;;4840690;29;20057;-82
2024/02/03 08:40:18;;;;;;;163.23;137.68;;;614.80;1356.80;;;;;;4824115;29;20091;-81
2024/02/03 08:42:46;;;;;;;134.18;112.95;;;589.70;1356.80;;;;;;4840869;29;20036;-81
2024/02/03 08:45:12;;;;;;;149.52;133.43;;;589.60;1382.40;;;;;;4840121;29;20057;-82
2024/02/03 08:47:38;;;;;;;95.57;85.65;;;588.90;1408.00;;;;;;4823773;29;20099;-81
2024/02/03 08:50:04;;;;;;;103.70;85.00;;;589.00;1408.00;;;;;;4840326;29;20026;-82
2024/02/03 08:52:30;;;;;;;94.78;84.75;;;564.10;1408.00;;;;;;4823438;29;20042;-81
2024/02/03 08:54:58;;;;;;;155.52;116.20;;;538.30;1459.20;;;;;;4840774;29;20380;-81
2024/02/03 08:57:24;;;;;;;85.57;70.20;;;589.30;1433.60;;;;;;4824094;29;20147;-82
2024/02/03 08:59:52;;;;;;;115.15;93.90;;;640.00;1331.20;;;;;;4823862;29;20141;-81
2024/02/03 09:02:18;;;;;;;54.15;45.05;;;665.60;1305.60;;;;;;4840313;29;20045;-82
2024/02/03 09:04:44;;;;;;;49.40;41.30;;;691.50;1254.40;;;;;;4840202;29;20030;-81
2024/02/03 09:07:10;;;;;;;43.40;35.35;;;691.30;1228.80;;;;;;4840637;29;20354;-82
2024/02/03 09:09:35;;;;;;;46.58;38.05;;;691.40;1228.80;;;;;;4823253;29;20029;-82
2024/02/03 09:12:01;;;;;;;42.88;38.58;;;691.90;1203.20;;;;;;4839785;29;20594;-82
2024/02/03 09:14:27;;;;;;;24.95;22.45;;;717.70;1177.60;;;;;;4839777;29;20026;-82
2024/02/03 09:16:54;;;;;;;146.45;111.60;;;717.70;1152.00;;;;;;4823454;29;20045;-82
2024/02/03 09:19:20;;;;;;;22.65;20.17;;;691.90;1177.60;;;;;;4823211;29;20429;-81
2024/02/03 09:21:47;;;;;;;17.00;14.23;;;717.10;1203.20;;;;;;4839877;29;20128;-82
2024/02/03 09:24:14;;;;;;;28.27;25.05;;;691.40;1177.60;;;;;;4838743;29;20034;-81
2024/02/03 09:26:40;;;;;;;9.48;8.07;;;717.20;1177.60;;;;;;4839795;29;20030;-81
2024/02/03 09:29:09;;;;;;;16.73;14.70;;;691.80;1152.00;;;;;;4839675;29;20045;-82
2024/02/03 09:31:35;;;;;;;7.43;6.13;;;666.00;1152.00;;;;;;4823934;29;20034;-83
2024/02/03 09:34:05;;;;;;;9.23;6.15;;;665.90;1177.60;;;;;;4840417;29;20381;-81
2024/02/03 09:36:34;;;;;;;13.38;11.95;;;640.20;1177.60;;;;;;4840369;29;20042;-82
2024/02/03 09:39:00;;;;;;;12.73;10.05;;;615.30;1203.20;;;;;;4839704;29;20018;-80
2024/02/03 09:41:27;;;;;;;5.55;4.97;;;640.00;1203.20;;;;;;4823432;29;20085;-81
2024/02/03 09:43:53;;;;;;;6.20;5.40;;;614.80;1228.80;;;;;;4839571;29;20026;-80
2024/02/03 09:46:19;;;;;;;7.85;5.57;;;589.70;1254.40;;;;;;4824355;29;20052;-81
2024/02/03 09:48:45;;;;;;;13.45;10.57;;;563.60;1305.60;;;;;;4824263;29;20553;-79
2024/02/03 09:51:11;;;;;;;5.90;4.45;;;563.20;1331.20;;;;;;4823106;29;20034;-80
2024/02/03 09:53:37;;;;;;;9.40;8.25;;;512.90;1331.20;;;;;;4828828;29;20054;-79
2024/02/03 09:56:05;;;;;;;18.88;15.48;;;487.10;1382.40;;;;;;4839702;29;20427;-86
2024/02/03 09:58:31;;;;;;;5.68;4.18;;;486.50;1408.00;;;;;;4823032;29;20033;-79
2024/02/03 10:00:57;;;;;;;36.40;32.05;;;461.30;1459.20;;;;;;4837954;29;20034;-80
2024/02/03 10:03:23;;;;;;;13.05;9.48;;;461.10;1484.80;;;;;;4823146;29;20029;-79
2024/02/03 10:05:51;;;;;;;26.15;19.17;;;460.90;1484.80;;;;;;4822751;29;20069;-79
2024/02/03 10:08:18;;;;;;;40.85;28.20;;;460.90;1510.40;;;;;;4838996;29;20774;-79
2024/02/03 10:10:44;;;;;;;23.23;17.63;;;436.10;1459.20;;;;;;4822460;29;20480;-82
2024/02/03 10:13:11;;;;;;;22.00;16.30;;;436.00;1484.80;;;;;;4838916;29;20037;-79
2024/02/03 10:15:39;;;;;;;22.92;16.48;;;460.80;1510.40;;;;;;4822019;29;20084;-81
2024/02/03 10:18:06;;;;;;;40.97;28.33;;;460.90;1484.80;;;;;;4839229;29;20030;-80
2024/02/03 10:20:32;;;;;;;38.63;26.50;;;461.00;1484.80;;;;;;4822273;29;20042;-79
2024/02/03 10:22:57;;;;;;;26.48;19.85;;;461.20;1459.20;;;;;;4838780;29;20041;-80
2024/02/03 10:25:31;;;;;;;19.58;15.80;;;461.70;1433.60;;;;;;4822331;29;20094;-88
2024/02/03 10:28:04;;;;;;;18.85;15.07;;;486.70;1408.00;;;;;;4838067;29;20034;-80
2024/02/03 10:30:31;;;;;;;20.30;15.93;;;461.50;1433.60;;;;;;4822147;29;20171;-81
2024/02/03 10:33:01;;;;;;;13.38;9.75;;;486.80;1408.00;;;;;;4839069;29;20029;-80
2024/02/03 10:35:28;;;;;;;21.65;16.30;;;486.90;1408.00;;;;;;4822064;29;20022;-84
2024/02/03 10:37:57;;;;;;;22.23;15.70;;;486.80;1433.60;;;;;;4822235;29;20142;-80
2024/02/03 10:40:29;;;;;;;16.38;12.93;;;486.70;1433.60;;;;;;4838097;29;20024;-79
2024/02/03 10:42:55;;;;;;;25.00;20.60;;;461.70;1433.60;;;;;;4822292;29;20033;-80
2024/02/03 10:45:31;;;;;;;18.25;13.68;;;461.20;1459.20;;;;;;4838386;29;20211;-79
2024/02/03 10:48:01;;;;;;;10.52;7.50;;;436.10;1484.80;;;;;;4822390;29;20130;-82
2024/02/03 10:50:35;;;;;;;8.60;6.88;;;435.80;1484.80;;;;;;4825489;29;20033;-79
2024/02/03 10:53:06;;;;;;;14.10;8.52;;;435.50;1510.40;;;;;;4823164;29;20041;-81
2024/02/03 10:55:36;;;;;;;17.83;12.80;;;435.20;1536.00;;;;;;4828679;29;20031;-80
2024/02/03 10:58:04;;;;;;;12.40;8.07;;;410.50;1536.00;;;;;;4817510;29;20045;-86
2024/02/03 11:00:30;;;;;;;9.20;4.15;;;410.30;1536.00;;;;;;4839056;29;20118;-86
2024/02/03 11:03:00;;;;;;;44.83;10.60;;;410.10;1561.60;;;;;;4839151;29;20063;-86
2024/02/03 11:05:30;;;;;;;19.25;12.88;;;410.20;1561.60;;;;;;4839070;29;20520;-86
2024/02/03 11:08:06;;;;;;;12.43;8.48;;;410.10;1561.60;;;;;;4822681;29;20033;-84
2024/02/03 11:10:36;;;;;;;17.20;12.80;;;410.00;1587.20;;;;;;4821742;29;20095;-84
2024/02/03 11:13:38;;;;;;;14.07;8.57;;;410.00;1587.20;;;;;;4822406;29;20117;-85
2024/02/03 11:16:05;;;;;;;9.10;5.40;;;409.90;1587.20;;;;;;4785398;29;20086;-83
2024/02/03 11:18:40;;;;;;;5.75;3.80;;;409.90;1587.20;;;;;;4784868;29;20042;-83
2024/02/03 11:21:07;;;;;;;9.52;5.03;;;409.70;1587.20;;;;;;4785132;29;20047;-81
2024/02/03 11:23:34;;;;;;;6.38;3.95;;;409.70;1587.20;;;;;;4799673;29;20031;-82
2024/02/03 11:26:00;;;;;;;19.08;11.80;;;409.80;1612.80;;;;;;4785543;29;20046;-83
2024/02/03 11:28:29;;;;;;;9.07;6.38;;;409.70;1587.20;;;;;;4793850;29;20038;-85
2024/02/03 11:31:02;;;;;;;8.45;5.75;;;409.90;1587.20;;;;;;4791177;29;20061;-84
2024/02/03 11:33:29;;;;;;;47.97;27.83;;;409.90;1587.20;;;;;;4784608;29;20050;-84
2024/02/03 11:36:02;;;;;;;13.10;7.85;;;409.80;1587.20;;;;;;4785179;29;20125;-84
2024/02/03 11:38:28;;;;;;;;;;;410.00;1612.80;;;;;;4784867;29;20039;-85
2024/02/03 11:40:56;;;;;;;5.32;3.83;;;410.00;1587.20;;;;;;4780844;29;19930;-80
2024/02/03 11:43:23;;;;;;;7.60;5.15;;;409.80;1638.40;;;;;;4797614;29;20578;-85
2024/02/03 11:45:57;;;;;;;5.65;3.72;;;409.80;1612.80;;;;;;4785067;29;20043;-80
2024/02/03 11:48:23;;;;;;;6.95;4.18;;;409.70;1587.20;;;;;;4798613;29;20089;-85
2024/02/03 11:50:49;;;;;;;6.68;3.92;;;409.60;1587.20;;;;;;4791460;29;20383;-86
2024/02/03 11:53:25;;;;;;;5.50;3.80;;;384.90;1561.60;;;;;;4837973;29;20046;-85
2024/02/03 11:55:56;;;;;;;9.40;6.00;;;384.90;1561.60;;;;;;4841704;29;20094;-86